createdAt,value
2023-04-15T00:00:58.311Z,26.50
2023-04-15T00:03:27.012Z,26.50
2023-04-15T00:05:55.235Z,26.40
2023-04-15T00:08:24.845Z,26.50
2023-04-15T00:10:52.809Z,26.50
2023-04-15T00:13:20.772Z,27.00
2023-04-15T00:15:49.352Z,26.50
2023-04-15T00:18:17.318Z,26.40
2023-04-15T00:20:45.269Z,26.40
2023-04-15T00:23:13.618Z,26.40
2023-04-15T00:25:43.300Z,27.10
2023-04-15T00:28:11.594Z,26.50
2023-04-15T00:30:41.572Z,26.40
2023-04-15T00:33:09.704Z,26.50
2023-04-15T00:35:37.899Z,26.50
2023-04-15T00:38:07.139Z,26.40
2023-04-15T00:40:35.385Z,26.40
2023-04-15T00:43:05.558Z,26.40
2023-04-15T00:45:33.579Z,26.30
2023-04-15T00:48:01.620Z,26.40
2023-04-15T00:50:29.547Z,26.40
2023-04-15T00:52:57.585Z,26.40
2023-04-15T00:55:26.738Z,26.40
2023-04-15T00:57:55.618Z,26.30
2023-04-15T01:00:25.055Z,26.30
2023-04-15T01:02:53.231Z,26.30
2023-04-15T01:05:21.521Z,26.30
2023-04-15T01:07:49.905Z,26.40
2023-04-15T01:10:18.625Z,26.30
2023-04-15T01:12:46.894Z,26.30
2023-04-15T01:15:14.783Z,26.30
2023-04-15T01:17:44.062Z,26.30
2023-04-15T01:20:12.408Z,26.30
2023-04-15T01:22:42.123Z,26.20
2023-04-15T01:25:13.072Z,26.40
2023-04-15T01:27:43.288Z,26.30
2023-04-15T01:30:12.200Z,26.30
2023-04-15T01:32:40.206Z,26.20
2023-04-15T01:35:08.733Z,26.30
2023-04-15T01:37:37.582Z,26.30
2023-04-15T01:40:06.474Z,26.20
2023-04-15T01:42:36.500Z,26.20
2023-04-15T01:45:07.167Z,26.30
2023-04-15T01:47:35.300Z,26.20
2023-04-15T01:50:03.349Z,26.20
2023-04-15T01:52:32.166Z,25.80
2023-04-15T01:55:00.156Z,26.20
2023-04-15T01:57:29.751Z,26.20
2023-04-15T01:59:57.736Z,26.20
2023-04-15T02:02:27.142Z,26.10
2023-04-15T02:04:57.977Z,26.20
2023-04-15T02:07:25.922Z,26.20
2023-04-15T02:09:54.232Z,26.20
2023-04-15T02:12:22.540Z,26.20
2023-04-15T02:15:00.408Z,26.20
2023-04-15T02:17:30.568Z,26.20
2023-04-15T02:20:06.991Z,26.20
2023-04-15T02:22:34.991Z,26.20
2023-04-15T02:25:06.125Z,26.20
2023-04-15T02:27:37.791Z,26.20
2023-04-15T02:30:09.200Z,26.20
2023-04-15T02:32:41.045Z,26.10
2023-04-15T02:35:13.177Z,26.20
2023-04-15T02:37:45.599Z,26.20
2023-04-15T02:40:14.357Z,26.10
2023-04-15T02:42:44.166Z,26.10
2023-04-15T02:45:14.562Z,26.10
2023-04-15T02:47:45.937Z,26.10
2023-04-15T02:50:15.042Z,26.10
2023-04-15T02:52:44.741Z,26.10
2023-04-15T02:55:14.442Z,26.10
2023-04-15T02:57:42.449Z,26.10
2023-04-15T03:00:12.719Z,26.10
2023-04-15T03:02:45.699Z,26.10
2023-04-15T03:05:15.435Z,26.10
2023-04-15T03:07:49.454Z,26.00
2023-04-15T03:10:17.713Z,26.10
2023-04-15T03:12:47.638Z,26.10
2023-04-15T03:15:20.114Z,26.10
2023-04-15T03:17:52.775Z,26.00
2023-04-15T03:20:20.914Z,26.00
2023-04-15T03:22:50.185Z,26.10
2023-04-15T03:25:20.041Z,26.10
2023-04-15T03:27:48.062Z,26.10
2023-04-15T03:30:16.399Z,26.10
2023-04-15T03:32:44.520Z,26.10
2023-04-15T03:35:13.776Z,26.10
2023-04-15T03:37:41.924Z,26.00
2023-04-15T03:40:10.725Z,26.00
2023-04-15T03:42:38.610Z,26.00
2023-04-15T03:45:07.754Z,26.00
2023-04-15T03:47:35.685Z,26.00
2023-04-15T03:50:03.645Z,26.00
2023-04-15T03:52:32.890Z,25.90
2023-04-15T03:55:00.841Z,25.90
2023-04-15T03:57:28.768Z,25.90
2023-04-15T03:59:56.714Z,25.90
2023-04-15T04:02:24.745Z,26.00
2023-04-15T04:04:52.991Z,26.00
2023-04-15T04:07:20.963Z,26.00
2023-04-15T04:09:50.263Z,25.90
2023-04-15T04:12:18.243Z,26.00
2023-04-15T04:14:46.218Z,26.00
2023-04-15T04:17:14.171Z,25.90
2023-04-15T04:19:42.104Z,25.90
2023-04-15T04:22:10.004Z,26.00
2023-04-15T04:24:39.087Z,25.90
2023-04-15T04:27:08.396Z,25.90
2023-04-15T04:29:38.382Z,25.90
2023-04-15T04:32:06.822Z,26.00
2023-04-15T04:34:34.800Z,25.90
2023-04-15T04:37:03.025Z,25.90
2023-04-15T04:39:31.117Z,25.90
2023-04-15T04:41:59.016Z,25.90
2023-04-15T04:44:28.288Z,25.80
2023-04-15T04:46:56.218Z,25.80
2023-04-15T04:49:24.264Z,25.90
2023-04-15T04:51:52.300Z,25.80
2023-04-15T04:54:21.238Z,25.80
2023-04-15T04:56:49.138Z,25.80
2023-04-15T04:59:19.014Z,25.90
2023-04-15T05:01:49.209Z,25.80
2023-04-15T05:04:17.346Z,25.80
2023-04-15T05:06:45.291Z,25.80
2023-04-15T05:09:13.272Z,25.80
2023-04-15T05:11:41.254Z,25.80
2023-04-15T05:14:09.144Z,25.90
2023-04-15T05:16:37.350Z,25.90
2023-04-15T05:19:07.661Z,25.80
2023-04-15T05:21:36.690Z,25.80
2023-04-15T05:24:06.909Z,25.80
2023-04-15T05:26:34.807Z,25.80
2023-04-15T05:29:03.536Z,25.80
2023-04-15T05:31:31.583Z,25.80
2023-04-15T05:33:59.613Z,25.80
2023-04-15T05:36:28.898Z,25.80
2023-04-15T05:38:56.844Z,25.80
2023-04-15T05:41:24.751Z,25.80
2023-04-15T05:43:52.727Z,25.70
2023-04-15T05:46:20.802Z,25.80
2023-04-15T05:48:48.726Z,25.70
2023-04-15T05:51:17.637Z,25.80
2023-04-15T05:53:46.986Z,25.80
2023-04-15T05:56:15.249Z,25.80
2023-04-15T05:58:43.204Z,25.80
2023-04-15T06:01:11.658Z,25.80
2023-04-15T06:03:39.989Z,25.80
2023-04-15T06:06:08.715Z,26.10
2023-04-15T06:08:36.677Z,25.80
2023-04-15T06:11:06.611Z,25.70
2023-04-15T06:16:02.820Z,25.70
2023-04-15T06:18:30.750Z,25.80
2023-04-15T06:20:58.809Z,25.80
2023-04-15T06:23:28.137Z,25.80
2023-04-15T06:25:56.115Z,25.70
2023-04-15T06:28:25.468Z,25.70
2023-04-15T06:30:54.414Z,25.70
2023-04-15T06:33:22.425Z,25.80
2023-04-15T06:35:50.956Z,25.80
2023-04-15T06:38:18.874Z,25.80
2023-04-15T06:40:47.408Z,25.70
2023-04-15T06:43:15.406Z,25.80
2023-04-15T06:45:44.697Z,25.80
2023-04-15T06:48:13.117Z,25.80
2023-04-15T06:50:41.520Z,25.80
2023-04-15T06:53:09.447Z,25.80
2023-04-15T06:55:38.248Z,25.80
2023-04-15T06:58:06.338Z,25.80
2023-04-15T07:00:34.706Z,25.80
2023-04-15T07:03:04.159Z,25.80
2023-04-15T07:05:32.442Z,25.80
2023-04-15T07:08:00.440Z,25.80
2023-04-15T07:10:28.385Z,25.80
2023-04-15T07:12:56.315Z,25.80
2023-04-15T07:15:24.928Z,25.80
2023-04-15T07:17:52.901Z,25.80
2023-04-15T07:20:22.543Z,25.80
2023-04-15T07:22:50.469Z,25.80
2023-04-15T07:25:19.033Z,25.90
2023-04-15T07:27:47.346Z,25.80
2023-04-15T07:30:15.879Z,25.90
2023-04-15T07:32:44.031Z,25.90
2023-04-15T07:35:11.961Z,25.80
2023-04-15T07:37:43.196Z,25.90
2023-04-15T07:40:12.170Z,25.90
2023-04-15T07:42:41.409Z,25.90
2023-04-15T07:45:10.251Z,26.00
2023-04-15T07:47:38.211Z,26.00
2023-04-15T07:50:07.382Z,26.00
2023-04-15T07:52:39.146Z,26.00
2023-04-15T07:55:09.482Z,26.00
2023-04-15T07:57:37.475Z,26.00
2023-04-15T08:00:07.523Z,26.00
2023-04-15T08:02:42.752Z,26.00
2023-04-15T08:05:11.171Z,26.00
2023-04-15T08:07:40.052Z,26.00
2023-04-15T08:10:10.758Z,26.00
2023-04-15T08:12:38.848Z,26.00
2023-04-15T08:15:08.234Z,26.00
2023-04-15T08:17:36.674Z,26.00
2023-04-15T08:20:05.862Z,26.10
2023-04-15T08:22:34.455Z,26.00
2023-04-15T08:25:03.384Z,26.00
2023-04-15T08:27:32.636Z,26.00
2023-04-15T08:30:02.754Z,26.00
2023-04-15T08:32:32.437Z,26.10
2023-04-15T08:35:00.589Z,26.10
2023-04-15T08:37:28.568Z,26.10
2023-04-15T08:39:56.796Z,26.10
2023-04-15T08:42:31.769Z,26.10
2023-04-15T08:45:03.570Z,26.10
2023-04-15T08:47:32.817Z,26.10
2023-04-15T08:50:04.639Z,26.10
2023-04-15T08:52:32.932Z,26.10
2023-04-15T08:55:03.280Z,26.10
2023-04-15T08:57:33.990Z,26.10
2023-04-15T09:00:05.883Z,26.10
2023-04-15T09:02:34.072Z,26.10
2023-04-15T09:05:04.931Z,26.10
2023-04-15T09:07:34.938Z,26.10
2023-04-15T09:10:03.969Z,26.10
2023-04-15T09:12:32.126Z,26.10
2023-04-15T09:15:01.361Z,26.20
2023-04-15T09:17:33.742Z,26.20
2023-04-15T09:20:10.277Z,26.20
2023-04-15T09:22:38.583Z,26.80
2023-04-15T09:25:27.614Z,26.20
2023-04-15T09:27:57.465Z,26.20
2023-04-15T09:30:26.023Z,26.20
2023-04-15T09:32:57.218Z,26.10
2023-04-15T09:35:27.382Z,26.20
2023-04-15T09:38:03.965Z,26.20
2023-04-15T09:40:36.045Z,26.20
2023-04-15T09:43:05.068Z,26.10
2023-04-15T09:45:34.044Z,26.20
2023-04-15T09:48:18.221Z,26.30
2023-04-15T09:50:46.214Z,26.20
2023-04-15T09:53:19.051Z,26.30
2023-04-15T09:55:50.251Z,26.30
2023-04-15T09:58:22.404Z,26.20
2023-04-15T10:00:51.533Z,26.30
2023-04-15T10:03:24.524Z,26.30
2023-04-15T10:05:54.026Z,26.20
2023-04-15T10:08:23.868Z,26.20
2023-04-15T10:10:52.745Z,26.20
2023-04-15T10:13:23.609Z,26.20
2023-04-15T10:15:53.521Z,26.20
2023-04-15T10:18:26.575Z,26.40
2023-04-15T10:20:54.957Z,26.20
2023-04-15T10:23:24.562Z,26.30
2023-04-15T10:25:55.200Z,26.20
2023-04-15T10:28:23.698Z,26.30
2023-04-15T10:30:51.995Z,26.30
2023-04-15T10:33:23.772Z,26.40
2023-04-15T10:35:53.662Z,26.30
2023-04-15T10:38:36.489Z,26.40
2023-04-15T10:41:19.958Z,26.70
2023-04-15T11:49:06.989Z,14.00
2023-04-15T11:51:36.780Z,17.50
2023-04-15T11:54:07.032Z,19.20
2023-04-15T11:56:36.145Z,22.10
2023-04-15T11:59:05.312Z,20.30
2023-04-15T12:01:35.275Z,20.80
2023-04-15T12:04:04.618Z,21.70
2023-04-15T12:06:37.345Z,21.60
2023-04-15T12:09:10.621Z,20.90
2023-04-15T12:11:49.706Z,20.50
2023-04-15T12:14:25.787Z,18.40
2023-04-15T12:16:58.412Z,18.80
2023-04-15T12:19:32.566Z,17.90
2023-04-15T12:22:05.292Z,17.80
2023-04-15T12:24:35.089Z,18.20
2023-04-15T12:27:05.895Z,19.40
2023-04-15T12:29:35.484Z,18.10
2023-04-15T12:32:08.823Z,17.10
2023-04-15T12:34:39.513Z,17.00
2023-04-15T12:37:10.895Z,16.00
2023-04-15T12:39:40.733Z,16.10
2023-04-15T12:42:10.281Z,16.10
2023-04-15T12:44:40.271Z,16.40
2023-04-15T12:47:10.120Z,17.40
2023-04-15T12:49:39.478Z,17.10
2023-04-15T12:52:09.596Z,18.10
2023-04-15T12:54:38.245Z,17.90
2023-04-15T12:57:07.707Z,19.90
2023-04-15T12:59:36.863Z,18.80
2023-04-15T13:02:05.779Z,17.40
2023-04-15T13:04:34.388Z,18.70
2023-04-15T13:07:03.153Z,18.10
2023-04-15T13:09:33.170Z,20.10
2023-04-15T13:12:02.312Z,20.20
2023-04-15T13:14:30.763Z,20.80
2023-04-15T13:16:59.148Z,21.10
2023-04-15T13:19:27.832Z,19.70
2023-04-15T13:21:56.413Z,20.70
2023-04-15T13:24:27.679Z,20.50
2023-04-15T13:26:59.246Z,21.40
2023-04-15T13:29:28.111Z,22.40
2023-04-15T13:31:57.844Z,22.10
2023-04-15T13:34:26.657Z,23.40
2023-04-15T13:36:58.022Z,21.50
2023-04-15T13:39:26.937Z,21.90
2023-04-15T13:41:56.066Z,23.40
2023-04-15T13:44:26.003Z,22.70
2023-04-15T13:46:54.511Z,22.50
2023-04-15T13:49:23.197Z,21.80
2023-04-15T13:51:53.109Z,22.40
2023-04-15T13:54:21.829Z,22.20
2023-04-15T13:56:50.539Z,21.90
2023-04-15T13:59:19.049Z,20.70
2023-04-15T14:01:49.350Z,22.70
2023-04-15T14:04:18.093Z,22.40
2023-04-15T14:06:47.039Z,21.60
2023-04-15T14:09:17.994Z,21.70
2023-04-15T14:11:46.441Z,20.60
2023-04-15T14:14:16.306Z,22.70
2023-04-15T14:16:46.591Z,21.40
2023-04-15T14:19:16.866Z,22.30
2023-04-15T14:21:45.266Z,22.30
2023-04-15T14:24:13.839Z,20.10
2023-04-15T14:26:44.100Z,19.70
2023-04-15T14:29:12.686Z,21.70
2023-04-15T14:31:41.073Z,21.40
2023-04-15T14:34:15.056Z,21.90
2023-04-15T14:36:46.118Z,22.10
2023-04-15T14:39:15.711Z,21.90
2023-04-15T14:41:44.234Z,21.30
2023-04-15T14:44:13.904Z,20.40
2023-04-15T14:46:42.429Z,20.40
2023-04-15T14:49:11.937Z,18.50
2023-04-15T14:51:41.707Z,20.10
2023-04-15T14:54:11.622Z,19.20
2023-04-15T14:56:40.180Z,18.60
2023-04-15T14:59:08.573Z,20.10
2023-04-15T15:01:37.158Z,20.40
2023-04-15T15:04:06.296Z,20.20
2023-04-15T15:06:35.517Z,21.00
2023-04-15T15:09:05.015Z,20.10
2023-04-15T15:11:38.322Z,20.10
2023-04-15T15:14:06.734Z,21.10
2023-04-15T15:16:35.649Z,21.20
2023-04-15T15:19:06.069Z,21.20
2023-04-15T15:21:34.690Z,21.30
2023-04-15T15:24:03.166Z,20.30
2023-04-15T15:26:32.318Z,20.60
2023-04-15T15:29:02.358Z,21.50
2023-04-15T15:31:32.473Z,22.00
2023-04-15T15:34:01.152Z,23.00
2023-04-15T15:36:31.337Z,25.00
2023-04-15T15:39:02.155Z,24.80
2023-04-15T15:41:33.874Z,25.50
2023-04-15T15:44:03.804Z,26.50
2023-04-15T15:46:32.312Z,27.70
2023-04-15T15:49:01.190Z,29.20
2023-04-15T15:51:29.856Z,30.00
2023-04-15T15:53:58.506Z,30.50
2023-04-15T15:56:27.490Z,30.70
2023-04-15T15:58:56.161Z,31.70
2023-04-15T16:01:27.009Z,32.30
2023-04-15T16:03:55.683Z,33.40
2023-04-15T16:06:24.709Z,33.80
2023-04-15T16:08:53.872Z,33.80
2023-04-15T16:11:22.307Z,33.70
2023-04-15T16:13:50.860Z,34.40
2023-04-15T16:16:19.600Z,35.10
2023-04-15T16:18:49.473Z,35.50
2023-04-15T16:21:18.095Z,37.40
2023-04-15T16:23:47.561Z,38.90
2023-04-15T16:26:16.176Z,38.90
2023-04-15T16:28:44.973Z,38.80
2023-04-15T16:31:15.360Z,40.50
2023-04-15T16:33:43.750Z,41.90
2023-04-15T16:36:13.768Z,43.10
2023-04-15T16:38:45.253Z,45.20
2023-04-15T16:41:13.689Z,45.40
2023-04-15T16:43:42.527Z,46.40
2023-04-15T16:46:12.214Z,48.30
2023-04-15T16:48:41.296Z,48.20
2023-04-15T16:51:09.884Z,48.40
2023-04-15T16:53:41.491Z,48.00
2023-04-15T16:56:11.508Z,48.50
2023-04-15T16:58:39.969Z,49.80
2023-04-15T17:01:08.397Z,50.00
2023-04-15T17:03:38.884Z,51.50
2023-04-15T17:06:08.467Z,52.00
2023-04-15T17:08:37.062Z,52.70
2023-04-15T17:11:06.912Z,54.00
2023-04-15T17:13:35.564Z,53.40
2023-04-15T17:16:04.413Z,52.40
2023-04-15T17:18:32.959Z,54.00
2023-04-15T17:21:01.936Z,53.60
2023-04-15T17:23:31.124Z,52.50
2023-04-15T17:25:59.708Z,52.60
2023-04-15T17:28:29.614Z,54.40
2023-04-15T17:31:01.435Z,54.50
2023-04-15T17:33:56.498Z,55.90
2023-04-15T17:36:18.298Z,55.10
2023-04-15T17:38:46.886Z,54.70
2023-04-15T17:41:15.788Z,55.00
2023-04-15T17:43:45.834Z,54.80
2023-04-15T17:46:15.188Z,55.70
2023-04-15T17:48:43.732Z,58.40
2023-04-15T17:51:12.877Z,60.20
2023-04-15T17:53:41.305Z,58.80
2023-04-15T17:56:09.696Z,60.90
2023-04-15T17:58:39.287Z,60.90
2023-04-15T18:01:09.398Z,59.60
2023-04-15T18:03:38.465Z,60.00
2023-04-15T18:06:07.752Z,60.40
2023-04-15T18:08:36.279Z,61.10
2023-04-15T18:11:05.046Z,61.60
2023-04-15T18:13:33.543Z,62.70
2023-04-15T18:16:02.037Z,63.40
2023-04-15T18:18:31.786Z,63.40
2023-04-15T18:21:00.227Z,63.40
2023-04-15T18:23:28.633Z,63.80
2023-04-15T18:25:58.175Z,63.70
2023-04-15T18:28:26.726Z,64.50
2023-04-15T18:30:56.625Z,63.30
2023-04-15T18:33:25.179Z,64.50
2023-04-15T18:35:55.719Z,63.90
2023-04-15T18:38:24.394Z,64.50
2023-04-15T18:40:53.418Z,64.70
2023-04-15T18:43:21.904Z,64.60
2023-04-15T18:45:53.050Z,64.20
2023-04-15T18:48:22.149Z,67.10
2023-04-15T18:50:53.981Z,67.80
2023-04-15T18:53:23.815Z,65.50
2023-04-15T18:55:52.462Z,66.20
2023-04-15T18:58:22.157Z,66.30
2023-04-15T19:00:50.661Z,65.70
2023-04-15T19:03:19.188Z,65.00
2023-04-15T19:05:47.938Z,63.50
2023-04-15T19:08:16.429Z,65.20
2023-04-15T19:10:46.148Z,67.20
2023-04-15T19:13:14.999Z,67.70
2023-04-15T19:15:44.642Z,65.90
2023-04-15T19:18:13.395Z,65.60
2023-04-15T19:20:42.064Z,67.90
2023-04-15T19:23:11.824Z,68.00
2023-04-15T19:25:45.094Z,68.00
2023-04-15T19:28:13.489Z,67.50
2023-04-15T19:30:42.181Z,66.00
2023-04-15T19:33:10.658Z,66.40
2023-04-15T19:35:39.093Z,68.20
2023-04-15T19:38:07.887Z,68.30
2023-04-15T19:40:36.481Z,67.90
2023-04-15T19:43:06.509Z,67.80
2023-04-15T19:45:35.450Z,70.60
2023-04-15T19:48:04.146Z,70.60
2023-04-15T19:50:33.370Z,70.80
2023-04-15T19:53:01.818Z,70.00
2023-04-15T19:55:30.195Z,70.20
2023-04-15T19:57:58.586Z,69.40
2023-04-15T20:00:28.630Z,70.60
2023-04-15T20:02:57.592Z,69.80
2023-04-15T20:05:26.295Z,69.70
2023-04-15T20:07:54.806Z,68.70
2023-04-15T20:10:23.787Z,68.80
2023-04-15T20:12:53.356Z,68.70
2023-04-15T20:15:24.022Z,69.60
2023-04-15T20:17:54.303Z,70.20
2023-04-15T20:20:23.425Z,71.10
2023-04-15T20:22:53.114Z,74.10
2023-04-15T20:25:21.792Z,76.60
2023-04-15T20:27:51.458Z,75.90
2023-04-15T20:30:20.262Z,75.50
2023-04-15T20:32:48.658Z,75.30
2023-04-15T20:35:19.917Z,75.10
2023-04-15T20:37:50.298Z,75.30
2023-04-15T20:40:18.882Z,74.90
2023-04-15T20:42:47.298Z,75.30
2023-04-15T20:45:16.161Z,74.40
2023-04-15T20:47:45.424Z,75.50
2023-04-15T20:50:13.987Z,76.50
2023-04-15T20:52:44.685Z,76.20
2023-04-15T20:55:13.090Z,75.50
2023-04-15T20:57:41.638Z,74.70
2023-04-15T21:00:11.486Z,74.70
2023-04-15T21:02:40.309Z,74.40
2023-04-15T21:05:09.094Z,75.60
2023-04-15T21:07:37.653Z,74.90
2023-04-15T21:10:08.518Z,76.80
2023-04-15T21:12:37.620Z,76.90
2023-04-15T21:15:06.867Z,76.90
2023-04-15T21:17:35.622Z,74.70
2023-04-15T21:20:05.726Z,74.70
2023-04-15T21:22:34.020Z,74.40
2023-04-15T21:25:02.556Z,74.80
2023-04-15T21:27:32.395Z,75.00
2023-04-15T21:30:01.019Z,74.50
2023-04-15T21:32:30.488Z,74.60
2023-04-15T21:34:59.071Z,71.80
2023-04-15T21:37:27.622Z,70.90
2023-04-15T21:39:55.963Z,70.20
2023-04-15T21:42:24.801Z,69.90
2023-04-15T21:44:54.861Z,69.20
2023-04-15T21:47:23.197Z,70.40
2023-04-15T21:49:52.545Z,69.90
2023-04-15T21:52:21.425Z,68.60
2023-04-15T21:54:49.904Z,69.30
2023-04-15T21:57:18.736Z,68.20
2023-04-15T21:59:47.236Z,68.30
2023-04-15T22:02:18.280Z,68.10
2023-04-15T22:04:46.657Z,68.40
2023-04-15T22:07:15.585Z,67.50
2023-04-15T22:09:43.985Z,66.40
2023-04-15T22:12:12.402Z,66.10
2023-04-15T22:14:40.810Z,66.10
2023-04-15T22:17:09.340Z,65.60
2023-04-15T22:19:39.228Z,64.00
2023-04-15T22:22:07.694Z,64.00
2023-04-15T22:24:39.990Z,63.60
2023-04-15T22:27:08.994Z,62.70
2023-04-15T22:29:39.133Z,63.70
2023-04-15T22:32:08.677Z,63.20
2023-04-15T22:34:38.543Z,65.00
2023-04-15T22:37:07.263Z,66.30
2023-04-15T22:39:35.794Z,65.10
2023-04-15T22:42:04.681Z,63.30
2023-04-15T22:44:32.996Z,64.30
2023-04-15T22:47:01.664Z,65.40
2023-04-15T22:49:30.039Z,65.20
2023-04-15T22:52:01.942Z,64.80
2023-04-15T22:54:30.391Z,63.60
2023-04-15T22:56:58.815Z,64.90
2023-04-15T22:59:27.240Z,65.60
2023-04-15T23:01:55.848Z,66.70
2023-04-15T23:04:28.231Z,67.00
2023-04-15T23:06:57.000Z,67.00
2023-04-15T23:09:27.238Z,68.40
2023-04-15T23:11:56.951Z,68.30
2023-04-15T23:14:26.256Z,68.40
2023-04-15T23:16:54.763Z,68.80
2023-04-15T23:19:23.188Z,69.00
2023-04-15T23:21:51.723Z,68.90
2023-04-15T23:24:19.998Z,68.30
2023-04-15T23:26:49.759Z,68.50
2023-04-15T23:29:18.747Z,67.90
2023-04-15T23:31:47.113Z,68.40
2023-04-15T23:34:15.644Z,66.20
2023-04-15T23:36:44.489Z,67.90
2023-04-15T23:39:12.895Z,68.30
2023-04-15T23:41:41.373Z,68.40
2023-04-15T23:44:11.148Z,68.40
2023-04-15T23:46:39.623Z,68.30
2023-04-15T23:49:08.196Z,68.40
2023-04-15T23:51:36.765Z,67.10
2023-04-15T23:54:05.319Z,65.60
2023-04-15T23:56:34.203Z,66.80
2023-04-15T23:59:02.694Z,68.50
